sensor_id;sensor_type;location;lat;lon;timestamp;pressure;altitude;pressure_sealevel;temperature;humidity
71573;BME280;59408;51.032;9.410;2022-11-15T00:01:26;98718.63;;;9.96;89.18
71573;BME280;59408;51.032;9.410;2022-11-15T00:03:53;98706.84;;;9.92;89.41
71573;BME280;59408;51.032;9.410;2022-11-15T00:06:20;98704.81;;;9.89;89.67
71573;BME280;59408;51.032;9.410;2022-11-15T00:08:46;98711.84;;;9.90;89.55
71573;BME280;59408;51.032;9.410;2022-11-15T00:11:13;98700.38;;;9.84;90.19
71573;BME280;59408;51.032;9.410;2022-11-15T00:13:40;98699.16;;;9.82;90.17
71573;BME280;59408;51.032;9.410;2022-11-15T00:16:08;98692.78;;;9.78;90.28
71573;BME280;59408;51.032;9.410;2022-11-15T00:18:37;98688.78;;;9.75;90.57
71573;BME280;59408;51.032;9.410;2022-11-15T00:21:05;98686.78;;;9.72;90.99
71573;BME280;59408;51.032;9.410;2022-11-15T00:23:32;98687.00;;;9.67;90.94
71573;BME280;59408;51.032;9.410;2022-11-15T00:25:59;98682.38;;;9.56;91.39
71573;BME280;59408;51.032;9.410;2022-11-15T00:28:26;98684.41;;;9.46;92.00
71573;BME280;59408;51.032;9.410;2022-11-15T00:30:53;98701.06;;;9.45;91.92
71573;BME280;59408;51.032;9.410;2022-11-15T00:33:20;98699.94;;;9.46;91.51
71573;BME280;59408;51.032;9.410;2022-11-15T00:35:48;98709.00;;;9.50;91.68
71573;BME280;59408;51.032;9.410;2022-11-15T00:38:14;98702.44;;;9.51;91.73
71573;BME280;59408;51.032;9.410;2022-11-15T00:40:41;98701.50;;;9.47;92.05
71573;BME280;59408;51.032;9.410;2022-11-15T00:43:08;98703.56;;;9.50;91.45
71573;BME280;59408;51.032;9.410;2022-11-15T00:45:34;98696.53;;;9.61;90.32
71573;BME280;59408;51.032;9.410;2022-11-15T00:48:01;98693.47;;;9.63;90.29
71573;BME280;59408;51.032;9.410;2022-11-15T00:50:28;98687.22;;;9.74;89.02
71573;BME280;59408;51.032;9.410;2022-11-15T00:52:56;98688.78;;;9.87;88.30
71573;BME280;59408;51.032;9.410;2022-11-15T00:55:23;98692.44;;;9.92;87.77
71573;BME280;59408;51.032;9.410;2022-11-15T00:57:49;98686.19;;;9.91;87.92
71573;BME280;59408;51.032;9.410;2022-11-15T01:00:16;98691.78;;;9.82;88.86
71573;BME280;59408;51.032;9.410;2022-11-15T01:02:43;98688.47;;;9.77;89.10
71573;BME280;59408;51.032;9.410;2022-11-15T01:05:10;98688.78;;;9.75;88.79
71573;BME280;59408;51.032;9.410;2022-11-15T01:07:37;98686.53;;;9.77;88.50
71573;BME280;59408;51.032;9.410;2022-11-15T01:10:05;98686.78;;;9.72;88.84
71573;BME280;59408;51.032;9.410;2022-11-15T01:12:33;98702.19;;;9.80;88.45
71573;BME280;59408;51.032;9.410;2022-11-15T01:14:59;98692.44;;;9.92;87.72
71573;BME280;59408;51.032;9.410;2022-11-15T01:17:26;98688.47;;;9.89;88.01
71573;BME280;59408;51.032;9.410;2022-11-15T01:19:53;98693.00;;;9.85;88.13
71573;BME280;59408;51.032;9.410;2022-11-15T01:22:20;98685.75;;;9.89;87.72
71573;BME280;59408;51.032;9.410;2022-11-15T01:24:46;98676.09;;;9.79;87.87
71573;BME280;59408;51.032;9.410;2022-11-15T01:27:14;98674.16;;;9.68;88.32
71573;BME280;59408;51.032;9.410;2022-11-15T01:29:41;98676.34;;;9.62;88.65
71573;BME280;59408;51.032;9.410;2022-11-15T01:32:08;98669.09;;;9.54;89.14
71573;BME280;59408;51.032;9.410;2022-11-15T01:34:34;98664.19;;;9.47;89.25
71573;BME280;59408;51.032;9.410;2022-11-15T01:37:01;98653.97;;;9.32;89.83
71573;BME280;59408;51.032;9.410;2022-11-15T01:39:28;98654.75;;;9.21;90.51
71573;BME280;59408;51.032;9.410;2022-11-15T01:41:55;98669.06;;;9.18;90.25
71573;BME280;59408;51.032;9.410;2022-11-15T01:44:53;98656.88;;;9.03;90.98
71573;BME280;59408;51.032;9.410;2022-11-15T01:47:22;98657.84;;;8.86;91.72
71573;BME280;59408;51.032;9.410;2022-11-15T01:49:53;98653.41;;;8.69;92.30
71573;BME280;59408;51.032;9.410;2022-11-15T01:52:22;98662.63;;;8.56;93.20
71573;BME280;59408;51.032;9.410;2022-11-15T01:54:53;98648.69;;;8.46;93.59
71573;BME280;59408;51.032;9.410;2022-11-15T01:57:22;98648.75;;;8.37;94.07
71573;BME280;59408;51.032;9.410;2022-11-15T01:59:48;98651.75;;;8.23;94.90
71573;BME280;59408;51.032;9.410;2022-11-15T02:02:16;98638.81;;;8.20;95.60
71573;BME280;59408;51.032;9.410;2022-11-15T02:04:45;98643.19;;;8.33;95.32
71573;BME280;59408;51.032;9.410;2022-11-15T02:07:14;98633.69;;;8.39;95.26
71573;BME280;59408;51.032;9.410;2022-11-15T02:09:43;98633.69;;;8.39;95.00
71573;BME280;59408;51.032;9.410;2022-11-15T02:12:11;98626.41;;;8.31;95.44
71573;BME280;59408;51.032;9.410;2022-11-15T02:14:42;98625.38;;;8.24;95.50
71573;BME280;59408;51.032;9.410;2022-11-15T02:17:28;98621.84;;;8.23;95.90
71573;BME280;59408;51.032;9.410;2022-11-15T02:26:24;98626.91;;;8.13;96.12
71573;BME280;59408;51.032;9.410;2022-11-15T02:28:59;98620.41;;;8.05;96.73
71573;BME280;59408;51.032;9.410;2022-11-15T02:31:33;98609.88;;;8.04;97.09
71573;BME280;59408;51.032;9.410;2022-11-15T02:34:06;98606.25;;;7.99;97.46
71573;BME280;59408;51.032;9.410;2022-11-15T02:36:40;98608.34;;;7.94;97.83
71573;BME280;59408;51.032;9.410;2022-11-15T02:39:15;98608.09;;;8.08;98.27
71573;BME280;59408;51.032;9.410;2022-11-15T02:41:48;98605.63;;;8.35;99.33
71573;BME280;59408;51.032;9.410;2022-11-15T02:44:20;98605.34;;;8.61;98.39
71573;BME280;59408;51.032;9.410;2022-11-15T02:56:34;98593.53;;;9.39;94.04
71573;BME280;59408;51.032;9.410;2022-11-15T02:59:12;98592.19;;;9.45;93.22
71573;BME280;59408;51.032;9.410;2022-11-15T03:01:49;98592.41;;;9.40;93.51
71573;BME280;59408;51.032;9.410;2022-11-15T03:04:26;98579.03;;;9.35;93.00
71573;BME280;59408;51.032;9.410;2022-11-15T03:07:04;98585.47;;;9.30;92.60
71573;BME280;59408;51.032;9.410;2022-11-15T03:09:35;98586.94;;;9.16;92.32
71573;BME280;59408;51.032;9.410;2022-11-15T03:12:12;98587.84;;;8.95;92.87
71573;BME280;59408;51.032;9.410;2022-11-15T03:14:48;98578.19;;;8.73;93.64
71573;BME280;59408;51.032;9.410;2022-11-15T03:17:22;98576.81;;;8.55;94.53
71573;BME280;59408;51.032;9.410;2022-11-15T03:19:51;98584.91;;;8.43;95.59
71573;BME280;59408;51.032;9.410;2022-11-15T03:22:21;98586.78;;;8.30;96.33
71573;BME280;59408;51.032;9.410;2022-11-15T03:24:53;98580.19;;;8.19;96.71
71573;BME280;59408;51.032;9.410;2022-11-15T03:27:25;98580.59;;;8.09;97.07
71573;BME280;59408;51.032;9.410;2022-11-15T03:29:57;98579.59;;;7.93;97.32
71573;BME280;59408;51.032;9.410;2022-11-15T03:32:28;98574.25;;;7.84;98.13
71573;BME280;59408;51.032;9.410;2022-11-15T03:34:57;98581.22;;;7.73;98.33
71573;BME280;59408;51.032;9.410;2022-11-15T03:37:30;98572.78;;;7.66;99.44
71573;BME280;59408;51.032;9.410;2022-11-15T03:39:59;98574.53;;;7.91;100.00
71573;BME280;59408;51.032;9.410;2022-11-15T03:42:30;98567.50;;;7.90;100.00
71573;BME280;59408;51.032;9.410;2022-11-15T03:45:02;98568.97;;;7.88;99.96
71573;BME280;59408;51.032;9.410;2022-11-15T03:47:34;98569.84;;;7.80;100.00
71573;BME280;59408;51.032;9.410;2022-11-15T03:50:05;98578.50;;;7.73;100.00
71573;BME280;59408;51.032;9.410;2022-11-15T03:52:34;98577.91;;;7.68;100.00
71573;BME280;59408;51.032;9.410;2022-11-15T03:55:03;98580.34;;;7.60;100.00
71573;BME280;59408;51.032;9.410;2022-11-15T03:57:31;98570.16;;;7.57;100.00
71573;BME280;59408;51.032;9.410;2022-11-15T03:59:58;98562.00;;;7.57;100.00
71573;BME280;59408;51.032;9.410;2022-11-15T04:02:24;98566.38;;;7.71;100.00
71573;BME280;59408;51.032;9.410;2022-11-15T04:04:51;98575.19;;;8.09;100.00
71573;BME280;59408;51.032;9.410;2022-11-15T04:07:17;98562.75;;;8.20;99.40
71573;BME280;59408;51.032;9.410;2022-11-15T04:09:44;98567.16;;;8.58;98.51
71573;BME280;59408;51.032;9.410;2022-11-15T04:12:11;98567.41;;;8.65;97.68
71573;BME280;59408;51.032;9.410;2022-11-15T04:14:39;98561.50;;;8.63;97.52
71573;BME280;59408;51.032;9.410;2022-11-15T04:17:05;98555.19;;;8.71;97.40
71573;BME280;59408;51.032;9.410;2022-11-15T04:19:32;98554.97;;;8.88;96.54
71573;BME280;59408;51.032;9.410;2022-11-15T04:21:58;98561.88;;;8.98;96.30
71573;BME280;59408;51.032;9.410;2022-11-15T04:24:25;98559.28;;;9.01;96.10
71573;BME280;59408;51.032;9.410;2022-11-15T04:26:52;98547.94;;;8.99;96.09
71573;BME280;59408;51.032;9.410;2022-11-15T04:29:18;98552.47;;;9.07;96.01
71573;BME280;59408;51.032;9.410;2022-11-15T04:31:46;98554.06;;;9.21;95.44
71573;BME280;59408;51.032;9.410;2022-11-15T04:34:12;98558.63;;;9.29;95.03
71573;BME280;59408;51.032;9.410;2022-11-15T04:36:39;98552.94;;;9.22;94.94
71573;BME280;59408;51.032;9.410;2022-11-15T04:39:06;98552.16;;;9.09;95.64
71573;BME280;59408;51.032;9.410;2022-11-15T04:41:33;98561.53;;;9.11;95.72
71573;BME280;59408;51.032;9.410;2022-11-15T04:43:59;98557.13;;;9.07;95.66
71573;BME280;59408;51.032;9.410;2022-11-15T04:46:26;98555.56;;;9.18;95.10
71573;BME280;59408;51.032;9.410;2022-11-15T04:48:55;98554.06;;;9.21;94.49
71573;BME280;59408;51.032;9.410;2022-11-15T04:51:24;98553.66;;;9.19;94.49
71573;BME280;59408;51.032;9.410;2022-11-15T04:53:51;98561.91;;;9.10;95.09
71573;BME280;59408;51.032;9.410;2022-11-15T04:56:19;98564.38;;;9.03;95.72
71573;BME280;59408;51.032;9.410;2022-11-15T04:58:48;98564.94;;;8.96;96.06
71573;BME280;59408;51.032;9.410;2022-11-15T05:01:15;98558.69;;;8.84;96.70
71573;BME280;59408;51.032;9.410;2022-11-15T05:03:42;98563.66;;;8.69;97.14
71573;BME280;59408;51.032;9.410;2022-11-15T05:06:09;98565.56;;;8.57;97.26
71573;BME280;59408;51.032;9.410;2022-11-15T05:08:36;98565.66;;;8.48;97.63
71573;BME280;59408;51.032;9.410;2022-11-15T05:11:03;98575.81;;;8.39;97.91
71573;BME280;59408;51.032;9.410;2022-11-15T05:13:29;98574.13;;;8.34;98.13
71573;BME280;59408;51.032;9.410;2022-11-15T05:15:56;98575.47;;;8.28;98.23
71573;BME280;59408;51.032;9.410;2022-11-15T05:18:23;98575.19;;;8.21;98.18
71573;BME280;59408;51.032;9.410;2022-11-15T05:20:49;98579.28;;;8.15;98.43
71573;BME280;59408;51.032;9.410;2022-11-15T05:23:17;98582.19;;;8.10;98.41
71573;BME280;59408;51.032;9.410;2022-11-15T05:25:44;98580.25;;;8.11;98.35
71573;BME280;59408;51.032;9.410;2022-11-15T05:28:11;98581.72;;;8.08;98.32
71573;BME280;59408;51.032;9.410;2022-11-15T05:30:37;98586.47;;;8.11;97.65
71573;BME280;59408;51.032;9.410;2022-11-15T05:33:04;98580.72;;;8.13;97.64
71573;BME280;59408;51.032;9.410;2022-11-15T05:35:34;98586.63;;;8.15;97.25
71573;BME280;59408;51.032;9.410;2022-11-15T05:38:04;98582.44;;;8.17;97.47
71573;BME280;59408;51.032;9.410;2022-11-15T05:40:32;98585.03;;;8.14;97.24
71573;BME280;59408;51.032;9.410;2022-11-15T05:43:01;98592.06;;;8.15;96.79
71573;BME280;59408;51.032;9.410;2022-11-15T05:45:29;98586.63;;;8.15;96.45
71573;BME280;59408;51.032;9.410;2022-11-15T05:47:57;98588.53;;;8.14;96.53
71573;BME280;59408;51.032;9.410;2022-11-15T05:50:25;98584.91;;;8.10;96.56
71573;BME280;59408;51.032;9.410;2022-11-15T05:52:52;98578.69;;;8.10;96.03
71573;BME280;59408;51.032;9.410;2022-11-15T05:55:20;98582.66;;;8.12;95.98
71573;BME280;59408;51.032;9.410;2022-11-15T05:57:48;98574.50;;;8.12;96.05
71573;BME280;59408;51.032;9.410;2022-11-15T06:00:15;98577.69;;;8.14;95.82
71573;BME280;59408;51.032;9.410;2022-11-15T06:02:42;98575.97;;;8.10;96.07
71573;BME280;59408;51.032;9.410;2022-11-15T06:05:08;98570.88;;;8.08;96.50
71573;BME280;59408;51.032;9.410;2022-11-15T06:07:35;98576.16;;;8.05;96.36
71573;BME280;59408;51.032;9.410;2022-11-15T06:10:02;98575.38;;;8.04;96.23
71573;BME280;59408;51.032;9.410;2022-11-15T06:12:29;98579.22;;;8.03;96.24
71573;BME280;59408;51.032;9.410;2022-11-15T06:14:57;98577.28;;;8.04;96.24
71573;BME280;59408;51.032;9.410;2022-11-15T06:17:23;98578.41;;;8.02;96.36
71573;BME280;59408;51.032;9.410;2022-11-15T06:19:50;98583.41;;;8.00;96.46
71573;BME280;59408;51.032;9.410;2022-11-15T06:22:16;98583.25;;;7.97;96.76
71573;BME280;59408;51.032;9.410;2022-11-15T06:24:43;98573.19;;;7.97;96.60
71573;BME280;59408;51.032;9.410;2022-11-15T06:27:10;98580.06;;;7.95;96.74
71573;BME280;59408;51.032;9.410;2022-11-15T06:29:37;98574.66;;;7.95;96.52
71573;BME280;59408;51.032;9.410;2022-11-15T06:32:05;98579.75;;;7.96;96.63
71573;BME280;59408;51.032;9.410;2022-11-15T06:34:32;98568.88;;;7.96;96.49
71573;BME280;59408;51.032;9.410;2022-11-15T06:36:58;98573.84;;;7.94;96.69
71573;BME280;59408;51.032;9.410;2022-11-15T06:39:25;98563.13;;;7.98;96.72
71573;BME280;59408;51.032;9.410;2022-11-15T06:41:51;98562.00;;;7.99;96.37
71573;BME280;59408;51.032;9.410;2022-11-15T06:44:18;98567.91;;;8.01;96.18
71573;BME280;59408;51.032;9.410;2022-11-15T06:46:44;98563.94;;;7.98;96.23
71573;BME280;59408;51.032;9.410;2022-11-15T06:49:12;98563.47;;;7.96;95.87
71573;BME280;59408;51.032;9.410;2022-11-15T06:51:39;98567.28;;;7.95;95.91
71573;BME280;59408;51.032;9.410;2022-11-15T06:54:05;98570.81;;;7.96;95.54
71573;BME280;59408;51.032;9.410;2022-11-15T06:56:33;98573.53;;;7.96;95.36
71573;BME280;59408;51.032;9.410;2022-11-15T06:59:00;98579.59;;;7.93;95.18
71573;BME280;59408;51.032;9.410;2022-11-15T07:01:26;98576.78;;;7.89;95.52
71573;BME280;59408;51.032;9.410;2022-11-15T07:03:53;98582.22;;;7.89;95.26
71573;BME280;59408;51.032;9.410;2022-11-15T07:06:21;98578.81;;;7.92;95.04
71573;BME280;59408;51.032;9.410;2022-11-15T07:08:47;98572.47;;;7.88;94.78
71573;BME280;59408;51.032;9.410;2022-11-15T07:11:14;98572.81;;;7.87;94.80
71573;BME280;59408;51.032;9.410;2022-11-15T07:13:40;98579.69;;;7.84;95.33
71573;BME280;59408;51.032;9.410;2022-11-15T07:16:08;98587.38;;;7.82;95.18
71573;BME280;59408;51.032;9.410;2022-11-15T07:18:36;98594.75;;;7.82;95.45
71573;BME280;59408;51.032;9.410;2022-11-15T07:21:04;98590.09;;;7.82;95.54
71573;BME280;59408;51.032;9.410;2022-11-15T07:23:35;98597.91;;;7.84;95.58
71573;BME280;59408;51.032;9.410;2022-11-15T07:26:02;98593.94;;;7.81;95.51
71573;BME280;59408;51.032;9.410;2022-11-15T07:28:29;98593.94;;;7.81;95.74
71573;BME280;59408;51.032;9.410;2022-11-15T07:30:55;98593.47;;;7.79;95.63
71573;BME280;59408;51.032;9.410;2022-11-15T07:33:22;98592.03;;;7.82;95.54
71573;BME280;59408;51.032;9.410;2022-11-15T07:35:48;98601.88;;;7.86;95.67
71573;BME280;59408;51.032;9.410;2022-11-15T07:38:16;98601.34;;;7.93;95.56
71573;BME280;59408;51.032;9.410;2022-11-15T07:40:45;98594.59;;;7.99;95.80
71573;BME280;59408;51.032;9.410;2022-11-15T07:43:12;98598.22;;;8.03;95.51
71573;BME280;59408;51.032;9.410;2022-11-15T07:45:41;98593.50;;;8.12;95.01
71573;BME280;59408;51.032;9.410;2022-11-15T07:48:07;98584.47;;;8.20;94.73
71573;BME280;59408;51.032;9.410;2022-11-15T07:50:34;98589.63;;;8.34;94.02
71573;BME280;59408;51.032;9.410;2022-11-15T07:53:01;98582.75;;;8.49;93.84
71573;BME280;59408;51.032;9.410;2022-11-15T07:55:28;98570.91;;;8.65;93.12
71573;BME280;59408;51.032;9.410;2022-11-15T07:58:01;98576.72;;;8.88;92.35
71573;BME280;59408;51.032;9.410;2022-11-15T08:00:28;98575.13;;;9.11;90.99
71573;BME280;59408;51.032;9.410;2022-11-15T08:03:01;98568.81;;;9.32;90.56
71573;BME280;59408;51.032;9.410;2022-11-15T08:05:27;98572.88;;;9.50;88.93
71573;BME280;59408;51.032;9.410;2022-11-15T08:07:54;98575.25;;;9.64;88.79
71573;BME280;59408;51.032;9.410;2022-11-15T08:10:21;98572.94;;;9.78;88.14
71573;BME280;59408;51.032;9.410;2022-11-15T08:12:48;98572.91;;;9.90;87.49
71573;BME280;59408;51.032;9.410;2022-11-15T08:15:16;98568.78;;;9.96;86.66
71573;BME280;59408;51.032;9.410;2022-11-15T08:17:42;98566.38;;;10.07;85.39
71573;BME280;59408;51.032;9.410;2022-11-15T08:20:10;98554.69;;;10.06;84.57
71573;BME280;59408;51.032;9.410;2022-11-15T08:22:36;98559.34;;;10.06;84.56
71573;BME280;59408;51.032;9.410;2022-11-15T08:25:04;98544.91;;;10.05;84.32
71573;BME280;59408;51.032;9.410;2022-11-15T08:27:30;98538.34;;;10.06;84.59
71573;BME280;59408;51.032;9.410;2022-11-15T08:29:57;98534.00;;;10.05;84.61
71573;BME280;59408;51.032;9.410;2022-11-15T08:32:26;98542.72;;;10.11;83.95
71573;BME280;59408;51.032;9.410;2022-11-15T08:34:53;98541.69;;;10.15;84.44
71573;BME280;59408;51.032;9.410;2022-11-15T08:37:19;98538.38;;;10.22;83.98
71573;BME280;59408;51.032;9.410;2022-11-15T08:39:46;98537.84;;;10.32;83.68
71573;BME280;59408;51.032;9.410;2022-11-15T08:42:12;98539.13;;;10.50;83.03
71573;BME280;59408;51.032;9.410;2022-11-15T08:44:45;98532.63;;;10.71;82.68
71573;BME280;59408;51.032;9.410;2022-11-15T08:47:12;98537.03;;;10.75;82.21
71573;BME280;59408;51.032;9.410;2022-11-15T08:49:40;98542.16;;;10.77;82.13
71573;BME280;59408;51.032;9.410;2022-11-15T08:52:06;98530.19;;;10.81;81.72
71573;BME280;59408;51.032;9.410;2022-11-15T08:54:33;98531.41;;;10.84;81.69
71573;BME280;59408;51.032;9.410;2022-11-15T08:57:00;98542.75;;;10.86;81.85
71573;BME280;59408;51.032;9.410;2022-11-15T08:59:26;98529.22;;;10.89;81.96
71573;BME280;59408;51.032;9.410;2022-11-15T09:01:53;98525.34;;;10.90;81.80
71573;BME280;59408;51.032;9.410;2022-11-15T09:04:20;98526.94;;;10.91;82.16
71573;BME280;59408;51.032;9.410;2022-11-15T09:06:48;98531.25;;;10.92;82.20
71573;BME280;59408;51.032;9.410;2022-11-15T09:09:15;98525.97;;;10.99;81.96
71573;BME280;59408;51.032;9.410;2022-11-15T09:11:42;98529.28;;;11.09;83.10
71573;BME280;59408;51.032;9.410;2022-11-15T09:14:10;98512.88;;;11.24;81.89
71573;BME280;59408;51.032;9.410;2022-11-15T09:16:37;98509.94;;;11.33;82.15
71573;BME280;59408;51.032;9.410;2022-11-15T09:19:03;98517.59;;;11.43;81.96
71573;BME280;59408;51.032;9.410;2022-11-15T09:21:37;98520.25;;;11.59;81.00
71573;BME280;59408;51.032;9.410;2022-11-15T09:24:05;98525.59;;;11.71;80.40
71573;BME280;59408;51.032;9.410;2022-11-15T09:26:32;98532.31;;;11.93;79.98
71573;BME280;59408;51.032;9.410;2022-11-15T09:28:58;98524.97;;;12.16;78.93
71573;BME280;59408;51.032;9.410;2022-11-15T09:31:25;98521.00;;;12.33;78.25
71573;BME280;59408;51.032;9.410;2022-11-15T09:33:52;98524.34;;;12.45;78.83
71573;BME280;59408;51.032;9.410;2022-11-15T09:36:19;98523.69;;;12.52;78.54
71573;BME280;59408;51.032;9.410;2022-11-15T09:38:45;98519.56;;;12.62;78.80
71573;BME280;59408;51.032;9.410;2022-11-15T09:41:35;98525.38;;;12.60;77.00
71573;BME280;59408;51.032;9.410;2022-11-15T09:44:38;98525.94;;;12.69;77.13
71573;BME280;59408;51.032;9.410;2022-11-15T09:47:32;98524.66;;;12.63;77.97
71573;BME280;59408;51.032;9.410;2022-11-15T09:50:09;98519.63;;;12.65;77.71
71573;BME280;59408;51.032;9.410;2022-11-15T09:52:36;98525.50;;;12.67;78.05
71573;BME280;59408;51.032;9.410;2022-11-15T09:55:09;98519.91;;;12.60;77.50
71573;BME280;59408;51.032;9.410;2022-11-15T09:57:43;98517.91;;;12.57;77.04
71573;BME280;59408;51.032;9.410;2022-11-15T10:00:15;98516.19;;;12.49;77.53
71573;BME280;59408;51.032;9.410;2022-11-15T10:03:10;98513.06;;;12.47;78.11
71573;BME280;59408;51.032;9.410;2022-11-15T10:05:42;98506.56;;;12.55;77.84
71573;BME280;59408;51.032;9.410;2022-11-15T10:08:26;98514.38;;;12.79;77.98
71573;BME280;59408;51.032;9.410;2022-11-15T10:10:59;98509.28;;;13.04;76.37
71573;BME280;59408;51.032;9.410;2022-11-15T10:13:48;98513.19;;;13.30;75.48
71573;BME280;59408;51.032;9.410;2022-11-15T10:16:36;98504.72;;;13.38;75.16
71573;BME280;59408;51.032;9.410;2022-11-15T10:19:17;98501.69;;;13.43;74.12
71573;BME280;59408;51.032;9.410;2022-11-15T10:21:56;98491.88;;;13.42;74.25
71573;BME280;59408;51.032;9.410;2022-11-15T10:24:27;98495.06;;;13.48;75.88
71573;BME280;59408;51.032;9.410;2022-11-15T10:26:56;98486.69;;;13.64;74.27
71573;BME280;59408;51.032;9.410;2022-11-15T10:29:24;98486.63;;;13.90;73.35
71573;BME280;59408;51.032;9.410;2022-11-15T10:31:52;98484.94;;;14.15;72.21
71573;BME280;59408;51.032;9.410;2022-11-15T10:34:20;98488.84;;;14.14;71.96
71573;BME280;59408;51.032;9.410;2022-11-15T10:36:54;98477.97;;;13.88;71.90
71573;BME280;59408;51.032;9.410;2022-11-15T10:39:21;98477.47;;;13.79;72.37
71573;BME280;59408;51.032;9.410;2022-11-15T10:41:48;98470.53;;;13.88;72.87
71573;BME280;59408;51.032;9.410;2022-11-15T10:44:20;98481.94;;;13.94;72.32
71573;BME280;59408;51.032;9.410;2022-11-15T10:47:05;98476.38;;;13.87;72.34
71573;BME280;59408;51.032;9.410;2022-11-15T10:49:33;98471.19;;;13.78;72.68
71573;BME280;59408;51.032;9.410;2022-11-15T10:52:02;98467.66;;;13.78;72.36
71573;BME280;59408;51.032;9.410;2022-11-15T10:54:33;98467.13;;;13.65;73.72
71573;BME280;59408;51.032;9.410;2022-11-15T10:57:06;98467.16;;;13.69;72.99
71573;BME280;59408;51.032;9.410;2022-11-15T10:59:36;98458.56;;;13.70;73.25
71573;BME280;59408;51.032;9.410;2022-11-15T11:05:25;98453.22;;;13.81;73.03
71573;BME280;59408;51.032;9.410;2022-11-15T11:07:56;98458.72;;;13.84;73.85
71573;BME280;59408;51.032;9.410;2022-11-15T11:10:23;98444.94;;;14.11;72.83
71573;BME280;59408;51.032;9.410;2022-11-15T11:13:14;98439.22;;;14.30;72.24
71573;BME280;59408;51.032;9.410;2022-11-15T11:15:42;98442.78;;;14.34;71.95
71573;BME280;59408;51.032;9.410;2022-11-15T11:18:16;98434.13;;;14.28;72.92
71573;BME280;59408;51.032;9.410;2022-11-15T11:20:51;98447.31;;;14.16;73.20
71573;BME280;59408;51.032;9.410;2022-11-15T11:23:38;98445.97;;;13.99;74.31
71573;BME280;59408;51.032;9.410;2022-11-15T11:26:18;98442.09;;;14.00;75.13
71573;BME280;59408;51.032;9.410;2022-11-15T11:29:00;98445.78;;;13.81;74.88
71573;BME280;59408;51.032;9.410;2022-11-15T11:31:32;98438.66;;;13.73;75.14
71573;BME280;59408;51.032;9.410;2022-11-15T11:34:07;98436.94;;;13.62;76.17
71573;BME280;59408;51.032;9.410;2022-11-15T11:36:42;98438.47;;;13.59;76.94
71573;BME280;59408;51.032;9.410;2022-11-15T11:39:21;98433.78;;;13.59;76.76
71573;BME280;59408;51.032;9.410;2022-11-15T11:41:57;98429.19;;;13.37;77.01
71573;BME280;59408;51.032;9.410;2022-11-15T11:44:33;98421.69;;;13.34;77.90
71573;BME280;59408;51.032;9.410;2022-11-15T11:47:01;98419.81;;;13.38;78.07
71573;BME280;59408;51.032;9.410;2022-11-15T11:49:36;98425.22;;;13.35;77.33
71573;BME280;59408;51.032;9.410;2022-11-15T11:52:11;98413.66;;;13.48;76.25
71573;BME280;59408;51.032;9.410;2022-11-15T11:54:47;98415.31;;;13.53;76.09
71573;BME280;59408;51.032;9.410;2022-11-15T11:57:23;98415.53;;;13.41;76.89
71573;BME280;59408;51.032;9.410;2022-11-15T11:59:56;98402.22;;;13.39;76.78
71573;BME280;59408;51.032;9.410;2022-11-15T12:02:28;98400.69;;;13.42;76.30
71573;BME280;59408;51.032;9.410;2022-11-15T12:05:03;98398.31;;;13.40;76.70
71573;BME280;59408;51.032;9.410;2022-11-15T12:07:34;98389.44;;;13.50;77.53
71573;BME280;59408;51.032;9.410;2022-11-15T12:10:04;98383.94;;;13.47;76.39
71573;BME280;59408;51.032;9.410;2022-11-15T12:12:41;98389.00;;;13.48;76.25
71573;BME280;59408;51.032;9.410;2022-11-15T12:15:13;98383.47;;;13.41;75.25
71573;BME280;59408;51.032;9.410;2022-11-15T12:17:42;98387.16;;;13.56;75.68
71573;BME280;59408;51.032;9.410;2022-11-15T12:20:16;98371.59;;;13.64;74.73
71573;BME280;59408;51.032;9.410;2022-11-15T12:22:52;98371.59;;;13.67;74.14
71573;BME280;59408;51.032;9.410;2022-11-15T12:25:21;98365.81;;;13.76;74.11
71573;BME280;59408;51.032;9.410;2022-11-15T12:27:53;98355.66;;;13.76;73.65
71573;BME280;59408;51.032;9.410;2022-11-15T12:30:22;98350.91;;;13.70;73.18
71573;BME280;59408;51.032;9.410;2022-11-15T12:32:51;98352.09;;;13.72;73.77
71573;BME280;59408;51.032;9.410;2022-11-15T12:35:25;98352.47;;;13.71;73.45
71573;BME280;59408;51.032;9.410;2022-11-15T12:37:54;98344.59;;;13.66;74.06
71573;BME280;59408;51.032;9.410;2022-11-15T12:46:12;98344.50;;;13.58;73.75
71573;BME280;59408;51.032;9.410;2022-11-15T12:48:57;98350.03;;;13.62;74.36
71573;BME280;59408;51.032;9.410;2022-11-15T12:55:02;98336.97;;;13.89;73.93
71573;BME280;59408;51.032;9.410;2022-11-15T12:57:40;98330.81;;;14.03;73.39
71573;BME280;59408;51.032;9.410;2022-11-15T13:03:27;98309.84;;;14.24;71.46
71573;BME280;59408;51.032;9.410;2022-11-15T13:06:06;98304.03;;;14.29;71.63
71573;BME280;59408;51.032;9.410;2022-11-15T13:08:46;98304.47;;;14.39;69.46
71573;BME280;59408;51.032;9.410;2022-11-15T13:11:45;98306.81;;;14.40;70.14
71573;BME280;59408;51.032;9.410;2022-11-15T13:14:42;98306.03;;;14.40;69.85
71573;BME280;59408;51.032;9.410;2022-11-15T13:17:38;98302.50;;;14.35;70.10
71573;BME280;59408;51.032;9.410;2022-11-15T13:20:21;98291.03;;;14.23;70.08
71573;BME280;59408;51.032;9.410;2022-11-15T13:22:50;98288.63;;;14.14;69.50
71573;BME280;59408;51.032;9.410;2022-11-15T13:25:22;98292.50;;;14.10;70.84
71573;BME280;59408;51.032;9.410;2022-11-15T13:27:55;98289.88;;;14.24;70.63
71573;BME280;59408;51.032;9.410;2022-11-15T13:30:24;98298.88;;;14.24;68.42
71573;BME280;59408;51.032;9.410;2022-11-15T13:32:51;98296.50;;;14.23;69.73
71573;BME280;59408;51.032;9.410;2022-11-15T13:35:21;98298.78;;;14.10;69.19
71573;BME280;59408;51.032;9.410;2022-11-15T13:37:48;98294.44;;;14.06;68.77
71573;BME280;59408;51.032;9.410;2022-11-15T13:40:21;98296.50;;;13.75;69.56
71573;BME280;59408;51.032;9.410;2022-11-15T13:42:48;98290.19;;;13.68;70.84
71573;BME280;59408;51.032;9.410;2022-11-15T13:45:17;98289.31;;;13.60;70.76
71573;BME280;59408;51.032;9.410;2022-11-15T13:47:44;98289.31;;;13.56;71.08
71573;BME280;59408;51.032;9.410;2022-11-15T13:50:12;98284.09;;;13.44;70.67
71573;BME280;59408;51.032;9.410;2022-11-15T13:52:41;98283.25;;;13.40;71.54
71573;BME280;59408;51.032;9.410;2022-11-15T13:55:13;98277.03;;;13.43;71.79